Time;durP1;ratioP1;P1;durP2;ratioP2;P2;SDS_P1;SDS_P2;PMS_P1;PMS_P2;Temp;Humidity;BMP_temperature;BMP_pressure;BME280_temperature;BME280_humidity;BME280_pressure;Samples;Min_cycle;Max_cycle;Signal;HPM_P1;HPM_P2
2023/01/08 00:01:34;;;;;;;37.00;12.68;;;9.20;97.50;;;;;;5086552;28;20140;-57
2023/01/08 00:03:59;;;;;;;42.45;12.10;;;9.20;97.50;;;;;;5086917;28;20070;-57
2023/01/08 00:06:25;;;;;;;41.42;12.05;;;9.20;97.50;;;;;;5086720;28;20060;-57
2023/01/08 00:08:50;;;;;;;36.08;12.35;;;9.20;97.50;;;;;;5086577;28;20039;-57
2023/01/08 00:11:16;;;;;;;41.95;12.38;;;9.20;97.50;;;;;;5087819;28;20039;-58
2023/01/08 00:13:42;;;;;;;40.97;12.55;;;9.20;97.50;;;;;;5069666;28;20036;-57
2023/01/08 00:16:10;;;;;;;27.10;11.25;;;9.20;97.50;;;;;;5086284;28;20036;-57
2023/01/08 00:18:36;;;;;;;28.05;12.18;;;9.10;97.50;;;;;;5087443;28;20032;-57
2023/01/08 00:21:01;;;;;;;39.47;13.90;;;9.10;97.50;;;;;;5085948;28;20123;-57
2023/01/08 00:23:27;;;;;;;36.13;12.88;;;9.20;97.60;;;;;;5086375;28;20036;-57
2023/01/08 00:25:52;;;;;;;33.10;12.55;;;9.10;97.50;;;;;;5086268;28;20106;-58
2023/01/08 00:28:19;;;;;;;31.33;12.05;;;9.10;97.50;;;;;;5087286;28;20108;-57
2023/01/08 00:30:45;;;;;;;32.97;12.70;;;9.10;97.50;;;;;;5086026;28;20032;-57
2023/01/08 00:33:11;;;;;;;26.52;12.00;;;9.10;97.40;;;;;;5085918;28;20028;-57
2023/01/08 00:35:37;;;;;;;35.97;12.77;;;9.10;97.40;;;;;;5085924;28;20071;-57
2023/01/08 00:38:03;;;;;;;26.90;11.73;;;9.10;97.50;;;;;;5087293;28;20028;-57
2023/01/08 00:40:28;;;;;;;31.95;12.35;;;9.10;97.50;;;;;;5086043;28;20047;-57
2023/01/08 00:42:54;;;;;;;26.38;12.40;;;9.10;97.50;;;;;;5085911;28;20029;-57
2023/01/08 00:45:19;;;;;;;31.05;11.80;;;9.10;97.50;;;;;;5086192;28;20081;-58
2023/01/08 00:47:45;;;;;;;34.05;13.38;;;9.00;97.50;;;;;;5085555;28;20035;-57
2023/01/08 00:50:10;;;;;;;32.28;13.05;;;9.00;97.50;;;;;;5085560;28;20127;-57
2023/01/08 00:52:36;;;;;;;35.38;13.25;;;9.00;97.50;;;;;;5086956;28;20085;-57
2023/01/08 00:55:02;;;;;;;27.83;13.07;;;9.10;97.60;;;;;;5086894;28;20033;-57
2023/01/08 00:57:34;;;;;;;34.78;13.68;;;9.00;97.60;;;;;;5085685;28;20025;-57
2023/01/08 01:00:00;;;;;;;30.35;12.50;;;9.00;97.60;;;;;;5085247;28;20032;-57
2023/01/08 01:02:26;;;;;;;34.17;13.57;;;9.00;97.60;;;;;;5085516;28;20024;-57
2023/01/08 01:04:52;;;;;;;27.88;14.88;;;8.90;97.60;;;;;;5086824;28;20050;-57
2023/01/08 01:07:18;;;;;;;34.85;14.90;;;8.90;97.60;;;;;;5085065;28;20419;-57
2023/01/08 01:09:43;;;;;;;31.65;12.93;;;8.90;97.70;;;;;;5085485;28;20032;-57
2023/01/08 01:12:09;;;;;;;26.80;13.93;;;8.90;97.60;;;;;;5086772;28;20039;-57
2023/01/08 01:14:36;;;;;;;24.77;12.88;;;8.90;97.70;;;;;;5085253;28;20052;-57
2023/01/08 01:17:02;;;;;;;30.17;14.02;;;8.90;97.70;;;;;;5086622;28;20075;-57
2023/01/08 01:19:27;;;;;;;33.00;13.93;;;8.90;97.70;;;;;;5084945;28;20032;-57
2023/01/08 01:21:53;;;;;;;34.80;14.80;;;8.90;97.70;;;;;;5085032;28;20175;-57
2023/01/08 01:24:20;;;;;;;30.17;14.68;;;8.90;97.70;;;;;;5085063;28;20039;-57
2023/01/08 01:26:46;;;;;;;32.58;16.15;;;8.90;97.80;;;;;;5086081;28;20154;-57
2023/01/08 01:29:11;;;;;;;35.22;14.75;;;8.80;97.80;;;;;;5086307;28;20425;-57
2023/01/08 01:31:37;;;;;;;32.10;15.35;;;8.80;97.80;;;;;;5084809;28;20136;-57
2023/01/08 01:34:02;;;;;;;35.63;16.65;;;8.80;97.80;;;;;;5084636;28;20035;-57
2023/01/08 01:36:28;;;;;;;33.45;15.48;;;8.80;97.80;;;;;;5067979;28;20029;-57
2023/01/08 01:38:54;;;;;;;31.20;15.10;;;8.80;97.80;;;;;;5086030;28;20052;-57
2023/01/08 01:41:30;;;;;;;32.10;16.27;;;8.80;97.80;;;;;;5086034;28;20025;-57
2023/01/08 01:43:57;;;;;;;30.50;16.08;;;8.80;97.70;;;;;;5067750;28;20036;-57
2023/01/08 01:46:38;;;;;;;26.60;15.45;;;8.80;97.70;;;;;;5085937;28;20039;-57
2023/01/08 01:49:20;;;;;;;30.13;16.20;;;8.80;97.60;;;;;;5084561;28;20032;-57
2023/01/08 01:51:53;;;;;;;30.65;16.52;;;8.80;97.60;;;;;;5084518;28;20088;-57
2023/01/08 01:54:18;;;;;;;31.65;15.45;;;8.80;97.70;;;;;;5067602;28;20040;-57
2023/01/08 01:56:44;;;;;;;30.33;16.48;;;8.80;97.70;;;;;;5084264;28;20050;-58
2023/01/08 01:59:10;;;;;;;35.03;18.05;;;8.80;97.80;;;;;;5084293;28;20024;-57
2023/01/08 02:01:35;;;;;;;31.45;17.88;;;8.70;97.70;;;;;;5085718;28;20025;-57
2023/01/08 02:04:01;;;;;;;33.25;17.70;;;8.70;97.80;;;;;;5084328;28;20035;-57
2023/01/08 02:06:36;;;;;;;31.70;18.55;;;8.70;97.80;;;;;;5085509;28;20389;-57
2023/01/08 02:09:08;;;;;;;35.70;18.38;;;8.70;97.80;;;;;;5084245;28;20037;-57
2023/01/08 02:11:47;;;;;;;34.65;19.58;;;8.70;97.80;;;;;;5083942;28;20105;-57
2023/01/08 02:14:19;;;;;;;31.38;19.45;;;8.70;97.90;;;;;;5084217;28;20449;-57
2023/01/08 02:16:54;;;;;;;32.67;18.80;;;8.70;97.90;;;;;;5083867;28;20070;-57
2023/01/08 02:19:47;;;;;;;31.73;19.92;;;8.70;97.90;;;;;;5083873;28;20032;-57
2023/01/08 02:22:32;;;;;;;32.85;19.63;;;8.60;97.80;;;;;;5067199;28;20028;-57
2023/01/08 02:25:10;;;;;;;35.80;20.90;;;8.60;97.90;;;;;;5084994;28;20021;-57
2023/01/08 02:27:35;;;;;;;32.42;19.90;;;8.60;97.90;;;;;;5085274;28;20025;-57
2023/01/08 02:30:01;;;;;;;35.47;19.13;;;8.60;97.90;;;;;;5083702;28;20361;-57
2023/01/08 02:32:27;;;;;;;34.53;19.48;;;8.60;97.90;;;;;;5083804;28;20028;-57
2023/01/08 02:34:53;;;;;;;32.63;19.90;;;8.60;97.90;;;;;;5083742;28;20032;-57
2023/01/08 02:37:19;;;;;;;40.08;20.35;;;8.60;98.00;;;;;;5083714;28;20460;-57
2023/01/08 02:40:09;;;;;;;29.88;19.55;;;8.60;98.00;;;;;;5084782;28;20028;-57
2023/01/08 02:42:54;;;;;;;38.15;20.52;;;8.60;98.00;;;;;;5068911;28;20048;-57
2023/01/08 02:45:29;;;;;;;28.98;19.25;;;8.60;98.00;;;;;;5083443;28;20113;-57
2023/01/08 02:48:10;;;;;;;31.10;19.52;;;8.50;98.00;;;;;;5084937;28;20058;-57
2023/01/08 02:50:48;;;;;;;30.63;18.92;;;8.60;98.10;;;;;;5083426;28;20031;-57
2023/01/08 02:53:22;;;;;;;33.55;18.98;;;8.60;98.10;;;;;;5083304;28;20036;-57
2023/01/08 02:55:52;;;;;;;32.97;19.65;;;8.50;98.10;;;;;;5083549;28;20032;-57
2023/01/08 02:58:18;;;;;;;30.83;17.88;;;8.50;98.10;;;;;;5083306;28;20038;-57
2023/01/08 03:00:43;;;;;;;32.22;18.60;;;8.50;98.10;;;;;;5084725;28;20032;-57
2023/01/08 03:03:34;;;;;;;29.45;18.42;;;8.50;98.10;;;;;;5083277;28;20025;-57
2023/01/08 03:06:05;;;;;;;28.23;18.45;;;8.50;98.10;;;;;;5083253;28;20024;-57
2023/01/08 03:08:32;;;;;;;29.88;18.92;;;8.50;98.20;;;;;;5089654;28;20040;-57
2023/01/08 03:11:02;;;;;;;31.80;19.10;;;8.50;98.20;;;;;;5090447;28;20052;-57
2023/01/08 03:13:58;;;;;;;34.20;18.25;;;8.50;98.20;;;;;;5073667;28;20025;-57
2023/01/08 03:16:27;;;;;;;27.17;17.58;;;8.50;98.10;;;;;;5091690;28;20024;-57
2023/01/08 03:18:56;;;;;;;28.25;16.77;;;8.50;98.00;;;;;;5089836;28;20049;-57
2023/01/08 03:21:21;;;;;;;34.17;18.55;;;8.50;98.00;;;;;;5089971;28;20024;-57
2023/01/08 03:23:47;;;;;;;30.70;18.48;;;8.60;98.00;;;;;;5089883;28;20115;-57
2023/01/08 03:26:14;;;;;;;27.25;17.67;;;8.50;98.00;;;;;;5073030;28;20024;-57
2023/01/08 03:28:44;;;;;;;28.92;16.67;;;8.50;98.00;;;;;;5089875;28;20085;-57
2023/01/08 03:31:09;;;;;;;28.13;16.60;;;8.50;98.00;;;;;;5089725;28;20032;-57
2023/01/08 03:33:35;;;;;;;25.92;16.15;;;8.60;98.00;;;;;;5089880;28;20029;-57
2023/01/08 03:36:00;;;;;;;23.42;15.88;;;8.50;98.10;;;;;;5089763;28;20087;-57
2023/01/08 03:38:27;;;;;;;28.02;16.88;;;8.50;98.00;;;;;;5089564;28;20033;-57
2023/01/08 03:40:55;;;;;;;25.65;15.90;;;8.50;98.10;;;;;;5089751;28;20024;-57
2023/01/08 03:43:21;;;;;;;25.15;16.58;;;8.50;98.10;;;;;;5089601;28;20040;-57
2023/01/08 03:45:52;;;;;;;25.70;16.85;;;8.50;98.20;;;;;;5089872;28;20031;-57
2023/01/08 03:48:18;;;;;;;24.02;15.25;;;8.50;98.50;;;;;;5089646;28;20029;-57
2023/01/08 03:50:44;;;;;;;24.17;15.63;;;8.50;98.20;;;;;;5089447;28;20031;-57
2023/01/08 03:53:09;;;;;;;23.60;15.60;;;8.50;98.20;;;;;;5089789;28;20528;-57
2023/01/08 03:55:35;;;;;;;27.80;16.00;;;8.50;98.20;;;;;;5089455;28;20097;-57
2023/01/08 03:58:02;;;;;;;26.35;16.40;;;8.50;98.20;;;;;;5089709;28;20052;-57
2023/01/08 04:00:27;;;;;;;22.08;14.98;;;8.50;98.10;;;;;;5072678;28;20438;-57
2023/01/08 04:02:53;;;;;;;24.00;14.90;;;8.50;98.10;;;;;;5089563;28;20088;-57
2023/01/08 04:05:18;;;;;;;24.00;14.70;;;8.50;98.10;;;;;;5089666;28;20077;-57
2023/01/08 04:07:44;;;;;;;20.08;13.75;;;8.50;98.10;;;;;;5072631;28;20035;-57
2023/01/08 04:10:09;;;;;;;27.13;14.07;;;8.50;98.10;;;;;;5090777;28;20059;-57
2023/01/08 04:12:35;;;;;;;23.30;13.98;;;8.50;98.20;;;;;;5089603;28;20024;-57
2023/01/08 04:15:00;;;;;;;21.77;14.85;;;8.50;98.20;;;;;;5089217;28;20032;-57
2023/01/08 04:17:26;;;;;;;20.60;13.77;;;8.50;98.20;;;;;;5090846;28;20035;-57
2023/01/08 04:19:51;;;;;;;19.25;14.07;;;8.50;98.20;;;;;;5085662;28;20166;-57
2023/01/08 04:22:17;;;;;;;21.00;14.30;;;8.50;98.20;;;;;;5087326;28;20078;-57
2023/01/08 04:24:42;;;;;;;23.50;14.15;;;8.50;98.10;;;;;;5086161;28;20024;-57
2023/01/08 04:27:08;;;;;;;25.30;14.68;;;8.50;98.00;;;;;;5086075;28;20069;-57
2023/01/08 04:29:33;;;;;;;19.88;13.57;;;8.50;98.00;;;;;;5085895;28;20028;-58
2023/01/08 04:31:59;;;;;;;21.20;14.23;;;8.50;98.00;;;;;;5086062;28;20084;-57
2023/01/08 04:34:25;;;;;;;20.98;13.95;;;8.50;98.00;;;;;;5086047;28;20476;-57
2023/01/08 04:36:50;;;;;;;22.20;13.80;;;8.50;98.00;;;;;;5085812;28;20028;-57
2023/01/08 04:39:16;;;;;;;20.58;13.85;;;8.50;98.00;;;;;;5085989;28;20433;-57
2023/01/08 04:41:41;;;;;;;22.35;13.70;;;8.50;98.00;;;;;;5087275;28;20033;-57
2023/01/08 04:44:07;;;;;;;19.92;13.18;;;8.50;98.00;;;;;;5085969;28;20028;-57
2023/01/08 04:46:33;;;;;;;19.40;13.20;;;8.50;98.00;;;;;;5086049;28;20021;-57
2023/01/08 04:48:59;;;;;;;25.23;14.05;;;8.50;98.30;;;;;;5085473;28;20044;-57
2023/01/08 04:51:25;;;;;;;19.88;12.63;;;8.50;98.00;;;;;;5086898;28;20373;-57
2023/01/08 04:53:50;;;;;;;21.38;13.10;;;8.50;98.30;;;;;;5085627;28;20024;-57
2023/01/08 04:56:16;;;;;;;21.27;13.25;;;8.50;98.00;;;;;;5087044;28;20044;-57
2023/01/08 04:58:41;;;;;;;17.17;12.75;;;8.50;98.10;;;;;;5085379;28;20036;-57
2023/01/08 05:01:33;;;;;;;20.90;12.88;;;8.50;98.00;;;;;;5085299;28;20032;-57
2023/01/08 05:04:01;;;;;;;17.77;11.98;;;8.50;98.00;;;;;;5083315;28;20067;-57
2023/01/08 05:06:27;;;;;;;22.58;12.27;;;8.50;98.00;;;;;;5085374;28;20107;-57
2023/01/08 05:08:53;;;;;;;18.88;12.57;;;8.50;98.00;;;;;;5086591;28;20036;-57
2023/01/08 05:11:18;;;;;;;18.15;12.10;;;8.50;98.00;;;;;;5085418;28;20028;-57
2023/01/08 05:13:47;;;;;;;19.25;11.32;;;8.50;98.00;;;;;;5085216;28;20033;-57
2023/01/08 05:16:13;;;;;;;18.58;12.27;;;8.50;98.00;;;;;;5085293;28;20036;-57
2023/01/08 05:18:38;;;;;;;20.80;11.50;;;8.50;98.00;;;;;;5086713;28;20092;-57
2023/01/08 05:21:04;;;;;;;14.88;10.90;;;8.50;98.00;;;;;;5086719;28;20028;-57
2023/01/08 05:23:30;;;;;;;15.32;11.35;;;8.50;98.00;;;;;;5085334;28;20029;-57
2023/01/08 05:26:00;;;;;;;19.77;11.43;;;8.50;98.00;;;;;;5084914;28;20021;-57
2023/01/08 05:28:25;;;;;;;18.10;11.40;;;8.50;98.10;;;;;;5084723;28;20028;-57
2023/01/08 05:30:51;;;;;;;17.88;11.60;;;8.50;98.10;;;;;;5086106;28;20035;-57
2023/01/08 05:33:16;;;;;;;16.00;11.13;;;8.50;98.10;;;;;;5084627;28;20039;-57
2023/01/08 05:35:42;;;;;;;15.32;10.30;;;8.50;98.10;;;;;;5086071;28;20044;-57
2023/01/08 05:38:07;;;;;;;18.38;11.40;;;8.50;98.10;;;;;;5086188;28;20070;-57
2023/01/08 05:40:33;;;;;;;15.65;10.10;;;8.50;98.10;;;;;;5084554;28;20024;-57
2023/01/08 05:42:59;;;;;;;14.02;10.35;;;8.40;98.10;;;;;;5084814;28;20021;-57
2023/01/08 05:45:25;;;;;;;14.15;9.40;;;8.50;98.10;;;;;;5084636;28;20029;-57
2023/01/08 05:47:50;;;;;;;16.85;9.90;;;8.50;98.00;;;;;;5084779;28;20035;-57
2023/01/08 05:50:16;;;;;;;16.70;9.80;;;8.50;98.00;;;;;;5067717;28;20150;-57
2023/01/08 05:52:41;;;;;;;16.15;10.23;;;8.50;98.00;;;;;;5085567;28;20124;-57
2023/01/08 05:55:07;;;;;;;15.38;10.00;;;8.50;98.10;;;;;;5085833;28;20024;-58
2023/01/08 05:57:33;;;;;;;12.02;9.70;;;8.50;98.00;;;;;;5086009;28;20360;-57
2023/01/08 05:59:58;;;;;;;12.35;9.57;;;8.50;97.90;;;;;;5084260;28;20035;-57
2023/01/08 06:02:24;;;;;;;13.10;9.77;;;8.50;97.90;;;;;;5085785;28;20033;-57
2023/01/08 06:04:49;;;;;;;12.55;9.00;;;8.50;97.90;;;;;;5085916;28;20433;-57
2023/01/08 06:07:15;;;;;;;13.65;9.32;;;8.60;97.90;;;;;;5084154;28;20025;-57
2023/01/08 06:09:40;;;;;;;16.40;9.85;;;8.50;97.90;;;;;;5067450;28;20063;-57
2023/01/08 06:12:06;;;;;;;15.88;9.63;;;8.60;98.00;;;;;;5085118;28;20029;-57
2023/01/08 06:14:32;;;;;;;13.95;9.93;;;8.50;98.10;;;;;;5084073;28;20040;-57
2023/01/08 06:16:57;;;;;;;13.13;8.57;;;8.50;98.10;;;;;;5084185;28;20028;-57
2023/01/08 06:19:23;;;;;;;13.27;9.38;;;8.60;98.20;;;;;;5085472;28;20140;-59
2023/01/08 06:21:48;;;;;;;19.05;9.35;;;8.60;98.30;;;;;;5084192;28;20109;-59
2023/01/08 06:24:14;;;;;;;14.20;9.77;;;8.60;98.30;;;;;;5084540;28;20471;-59
2023/01/08 06:26:39;;;;;;;14.05;9.10;;;8.60;98.40;;;;;;5085565;28;20021;-59
2023/01/08 06:29:05;;;;;;;11.65;9.00;;;8.60;98.40;;;;;;5085217;28;20024;-59
2023/01/08 06:31:31;;;;;;;14.73;8.95;;;8.60;98.40;;;;;;5083980;28;20032;-59
2023/01/08 06:33:56;;;;;;;11.88;8.38;;;8.60;98.40;;;;;;5085340;28;20024;-60
2023/01/08 06:36:22;;;;;;;10.77;8.35;;;8.60;98.40;;;;;;5083980;28;20048;-60
2023/01/08 06:38:47;;;;;;;10.85;8.02;;;8.60;98.40;;;;;;5067053;28;20029;-59
2023/01/08 06:41:13;;;;;;;12.07;8.65;;;8.70;98.70;;;;;;5083851;28;20020;-60
2023/01/08 06:43:38;;;;;;;12.18;8.50;;;8.70;98.40;;;;;;5084393;28;20388;-59
2023/01/08 06:46:05;;;;;;;14.48;8.10;;;8.70;98.30;;;;;;5084926;28;20052;-59
2023/01/08 06:48:30;;;;;;;11.57;8.27;;;8.70;98.30;;;;;;5083873;28;20029;-60
2023/01/08 06:50:58;;;;;;;10.60;8.25;;;8.70;98.30;;;;;;5083775;28;20048;-59
2023/01/08 06:53:24;;;;;;;14.00;9.23;;;8.70;98.30;;;;;;5083737;28;20181;-59
2023/01/08 06:55:55;;;;;;;13.15;7.50;;;8.70;98.30;;;;;;5083700;28;20438;-60
2023/01/08 06:58:24;;;;;;;12.93;8.38;;;8.70;98.60;;;;;;5083584;28;20020;-60
2023/01/08 07:00:49;;;;;;;10.93;7.55;;;8.70;98.30;;;;;;5083445;28;20025;-60
2023/01/08 07:03:15;;;;;;;11.30;7.50;;;8.70;98.30;;;;;;5083528;28;20449;-59
2023/01/08 07:05:41;;;;;;;13.25;7.88;;;8.70;98.30;;;;;;5083517;28;20025;-60
2023/01/08 07:08:12;;;;;;;12.95;8.63;;;8.70;98.30;;;;;;5083773;28;20036;-60
2023/01/08 07:10:38;;;;;;;13.05;8.20;;;8.70;98.30;;;;;;5066583;28;20032;-59
2023/01/08 07:13:04;;;;;;;11.68;7.53;;;8.70;98.30;;;;;;5083481;28;20116;-59
2023/01/08 07:15:29;;;;;;;13.77;7.70;;;8.70;98.30;;;;;;5083331;28;20094;-60
2023/01/08 07:17:55;;;;;;;11.32;8.57;;;8.70;98.30;;;;;;5066377;28;20036;-60
2023/01/08 07:20:21;;;;;;;12.48;7.90;;;8.70;98.30;;;;;;5084815;28;20031;-59
2023/01/08 07:22:46;;;;;;;14.35;8.07;;;8.70;98.30;;;;;;5083916;28;20169;-60
2023/01/08 07:25:12;;;;;;;14.90;7.88;;;8.70;98.30;;;;;;5085017;28;20032;-60
2023/01/08 07:27:37;;;;;;;12.15;7.65;;;8.80;98.30;;;;;;5085392;28;20036;-60
2023/01/08 07:30:03;;;;;;;9.23;7.20;;;8.70;98.30;;;;;;5083030;28;20111;-59
2023/01/08 07:32:29;;;;;;;12.70;8.18;;;8.70;98.30;;;;;;5083088;28;20520;-59
2023/01/08 07:34:57;;;;;;;12.55;6.82;;;8.80;98.30;;;;;;5084756;28;20056;-60
2023/01/08 07:37:23;;;;;;;10.43;6.80;;;8.70;98.30;;;;;;5083238;28;20041;-60
2023/01/08 07:39:51;;;;;;;9.85;6.85;;;8.70;98.30;;;;;;5084373;28;20031;-60
2023/01/08 07:42:17;;;;;;;9.32;6.93;;;8.80;98.30;;;;;;5084699;28;20029;-59
2023/01/08 07:44:43;;;;;;;9.73;6.57;;;8.80;98.30;;;;;;5082840;28;20046;-60
2023/01/08 07:47:08;;;;;;;13.35;7.22;;;8.80;98.30;;;;;;5083183;28;20044;-60
2023/01/08 07:49:34;;;;;;;9.90;6.88;;;8.80;98.30;;;;;;5084166;28;20081;-60
2023/01/08 07:51:59;;;;;;;8.80;6.70;;;8.80;98.30;;;;;;5083302;28;20033;-60
2023/01/08 07:54:25;;;;;;;8.18;6.82;;;8.80;98.30;;;;;;5085495;28;20035;-59
2023/01/08 07:56:53;;;;;;;8.85;6.93;;;8.80;98.30;;;;;;5088133;28;20043;-59
2023/01/08 07:59:19;;;;;;;9.00;6.65;;;8.80;98.30;;;;;;5069867;28;20029;-59
2023/01/08 08:01:44;;;;;;;12.48;6.55;;;8.80;98.60;;;;;;5086538;28;20046;-60
2023/01/08 08:04:10;;;;;;;7.75;6.20;;;8.80;98.60;;;;;;5086520;28;20560;-60
2023/01/08 08:06:35;;;;;;;9.15;6.90;;;8.80;98.30;;;;;;5086631;28;20533;-59
2023/01/08 08:09:02;;;;;;;11.23;6.10;;;8.80;98.30;;;;;;5069749;28;20033;-59
2023/01/08 08:11:28;;;;;;;10.27;6.30;;;8.90;98.30;;;;;;5086277;28;20099;-60
2023/01/08 08:13:53;;;;;;;8.27;6.65;;;8.80;98.30;;;;;;5086594;28;20033;-59
2023/01/08 08:16:19;;;;;;;12.63;5.93;;;8.80;98.30;;;;;;5086183;28;20043;-60
2023/01/08 08:18:44;;;;;;;9.50;6.70;;;8.80;98.30;;;;;;5086158;28;20028;-60
2023/01/08 08:21:10;;;;;;;10.45;6.32;;;8.90;98.30;;;;;;5086056;28;20021;-59
2023/01/08 08:23:35;;;;;;;10.45;6.72;;;8.90;98.30;;;;;;5086304;28;20039;-60
2023/01/08 08:26:03;;;;;;;8.70;6.25;;;8.90;98.30;;;;;;5086372;28;20119;-60
2023/01/08 08:28:28;;;;;;;9.52;6.38;;;8.90;98.30;;;;;;5086172;28;20021;-60
2023/01/08 08:30:54;;;;;;;6.97;5.55;;;8.90;98.30;;;;;;5086285;28;20092;-58
2023/01/08 08:33:19;;;;;;;8.32;5.88;;;8.90;98.30;;;;;;5069615;28;20090;-60
2023/01/08 08:35:49;;;;;;;8.80;6.13;;;8.90;98.30;;;;;;5085857;28;20021;-60
2023/01/08 08:38:15;;;;;;;8.05;5.80;;;8.90;98.60;;;;;;5069355;28;20031;-60
2023/01/08 08:40:41;;;;;;;11.35;6.15;;;8.90;98.30;;;;;;5087242;28;20071;-60
2023/01/08 08:43:08;;;;;;;8.52;5.90;;;8.90;98.30;;;;;;5087203;28;20024;-60
2023/01/08 08:45:34;;;;;;;8.85;6.22;;;9.00;98.30;;;;;;5085644;28;20220;-59
2023/01/08 08:47:59;;;;;;;11.07;6.35;;;8.90;98.30;;;;;;5085760;28;20059;-60
2023/01/08 08:50:25;;;;;;;9.60;6.32;;;8.90;98.30;;;;;;5085803;28;20025;-59
2023/01/08 08:52:50;;;;;;;9.77;6.10;;;8.90;98.30;;;;;;5087046;28;20033;-60
2023/01/08 08:55:16;;;;;;;8.27;5.68;;;8.90;98.30;;;;;;5068713;28;20032;-60
2023/01/08 08:57:43;;;;;;;7.47;5.88;;;8.90;98.30;;;;;;5086999;28;20043;-60
2023/01/08 09:00:09;;;;;;;7.07;5.40;;;9.00;98.30;;;;;;5085516;28;20025;-60
2023/01/08 09:02:34;;;;;;;7.68;4.97;;;8.90;98.30;;;;;;5068791;28;20029;-60
2023/01/08 09:05:00;;;;;;;7.63;5.53;;;9.00;98.30;;;;;;5086028;28;20021;-60
2023/01/08 09:07:25;;;;;;;7.82;5.22;;;9.00;98.30;;;;;;5085173;28;20059;-60
2023/01/08 09:09:51;;;;;;;17.25;7.43;;;8.80;98.30;;;;;;5086726;28;20039;-60
2023/01/08 09:12:16;;;;;;;8.23;5.78;;;9.00;98.30;;;;;;5086707;28;20033;-60
2023/01/08 09:14:42;;;;;;;8.98;4.90;;;9.00;98.40;;;;;;5084734;28;20040;-60
2023/01/08 09:17:07;;;;;;;12.05;5.15;;;9.00;98.50;;;;;;5084761;28;20472;-60
2023/01/08 09:19:33;;;;;;;31.08;6.47;;;9.00;98.50;;;;;;5086176;28;20130;-60
2023/01/08 09:22:00;;;;;;;23.95;5.85;;;9.00;98.60;;;;;;5086257;28;20043;-60
2023/01/08 09:24:25;;;;;;;17.38;5.68;;;9.10;98.80;;;;;;5084746;28;20024;-60
2023/01/08 09:26:53;;;;;;;43.45;7.75;;;9.10;98.90;;;;;;5086280;28;20517;-60
2023/01/08 09:29:18;;;;;;;40.97;7.78;;;9.10;99.00;;;;;;5067995;28;20040;-61
2023/01/08 09:31:45;;;;;;;52.92;8.60;;;9.10;99.10;;;;;;5085972;28;20036;-61
2023/01/08 09:34:11;;;;;;;65.53;9.18;;;9.10;99.10;;;;;;5085839;28;20039;-60
2023/01/08 09:36:36;;;;;;;58.72;9.30;;;9.10;99.30;;;;;;5085897;28;20087;-60
2023/01/08 09:39:02;;;;;;;90.57;9.90;;;9.10;99.40;;;;;;5067405;28;20099;-61
2023/01/08 09:41:32;;;;;;;75.70;10.68;;;9.20;99.60;;;;;;5085623;28;20028;-61
2023/01/08 09:43:58;;;;;;;48.05;8.98;;;9.20;99.70;;;;;;5084590;28;20037;-61
2023/01/08 09:46:25;;;;;;;76.32;9.52;;;9.20;99.80;;;;;;5067718;28;20365;-61
2023/01/08 09:48:51;;;;;;;96.82;12.80;;;9.20;99.80;;;;;;5084622;28;20028;-61
2023/01/08 09:51:18;;;;;;;93.43;12.07;;;9.20;99.90;;;;;;5084367;28;20036;-58
2023/01/08 09:53:43;;;;;;;74.68;9.57;;;9.30;99.90;;;;;;5084189;28;20078;-58
2023/01/08 09:56:18;;;;;;;68.68;11.52;;;9.30;99.90;;;;;;5084194;28;20032;-57
2023/01/08 09:58:51;;;;;;;111.70;12.37;;;9.30;99.90;;;;;;5084593;28;20419;-58
2023/01/08 10:01:20;;;;;;;93.82;13.63;;;9.30;99.90;;;;;;5084431;28;20365;-58
2023/01/08 10:03:51;;;;;;;102.18;13.48;;;9.40;99.90;;;;;;5084286;28;20024;-58
2023/01/08 10:06:17;;;;;;;116.93;14.68;;;9.40;99.90;;;;;;5083568;28;20039;-58
2023/01/08 10:08:42;;;;;;;160.13;19.67;;;9.40;99.90;;;;;;5083912;28;20032;-58
2023/01/08 10:11:09;;;;;;;142.65;15.68;;;9.50;99.90;;;;;;5084183;28;20489;-58
2023/01/08 10:13:36;;;;;;;138.70;14.27;;;9.50;99.90;;;;;;5085517;28;20028;-58
2023/01/08 10:16:06;;;;;;;126.63;14.80;;;9.50;99.90;;;;;;5067406;28;20393;-58
2023/01/08 10:18:31;;;;;;;137.07;14.52;;;9.60;99.90;;;;;;5082984;28;20423;-58
2023/01/08 10:20:57;;;;;;;122.05;15.63;;;9.60;99.90;;;;;;5067224;28;20039;-58
2023/01/08 10:23:22;;;;;;;123.70;16.27;;;9.60;99.90;;;;;;5084111;28;20067;-58
2023/01/08 10:25:56;;;;;;;130.98;15.65;;;9.60;99.90;;;;;;5084991;28;20017;-58
2023/01/08 10:28:23;;;;;;;145.35;17.63;;;9.70;99.90;;;;;;5083484;28;20032;-58
2023/01/08 10:30:50;;;;;;;120.00;15.05;;;9.70;99.90;;;;;;5083726;28;20062;-58
2023/01/08 10:33:17;;;;;;;138.82;16.98;;;9.80;99.90;;;;;;5083597;28;20060;-58
2023/01/08 10:35:51;;;;;;;165.10;18.92;;;9.80;99.90;;;;;;5081308;28;20028;-58
2023/01/08 10:38:37;;;;;;;155.30;19.77;;;9.90;99.90;;;;;;5057624;28;20580;-58
2023/01/08 10:41:03;;;;;;;;;;;9.90;99.90;;;;;;5082954;28;20032;-58
2023/01/08 10:43:33;;;;;;;180.43;20.23;;;9.90;99.90;;;;;;5084549;28;19915;-58
2023/01/08 10:46:00;;;;;;;185.43;21.02;;;9.90;99.90;;;;;;5082315;28;20032;-58
2023/01/08 10:48:32;;;;;;;187.88;20.13;;;9.90;99.90;;;;;;5083150;28;20035;-58
2023/01/08 10:51:16;;;;;;;151.07;19.52;;;9.90;99.90;;;;;;5100225;28;20415;-58
2023/01/08 10:53:41;;;;;;;183.82;19.17;;;10.00;99.90;;;;;;5083051;28;20029;-58
2023/01/08 10:56:22;;;;;;;233.40;25.98;;;9.90;99.90;;;;;;5067847;28;20120;-58
2023/01/08 10:58:48;;;;;;;172.20;21.55;;;10.00;99.90;;;;;;5063033;28;20048;-58
2023/01/08 11:01:22;;;;;;;234.38;24.38;;;10.00;99.90;;;;;;5062765;28;20021;-57
2023/01/08 11:03:50;;;;;;;236.88;25.02;;;10.00;99.90;;;;;;5062459;28;20062;-58
2023/01/08 11:06:19;;;;;;;185.95;22.88;;;10.00;99.90;;;;;;5071548;28;20128;-58
2023/01/08 11:08:52;;;;;;;207.77;23.52;;;10.10;99.90;;;;;;5083011;28;20039;-58
2023/01/08 11:11:18;;;;;;;181.48;22.40;;;10.10;99.90;;;;;;5083403;28;20021;-58
2023/01/08 11:13:57;;;;;;;200.15;20.05;;;10.10;99.90;;;;;;5082835;28;20468;-58
2023/01/08 11:16:30;;;;;;;203.35;23.02;;;10.20;99.90;;;;;;5081570;28;20047;-58
2023/01/08 11:18:55;;;;;;;194.00;22.52;;;10.20;99.90;;;;;;5082602;28;20040;-58
2023/01/08 11:21:22;;;;;;;204.55;22.27;;;10.20;99.90;;;;;;5063871;28;20107;-58
2023/01/08 11:24:11;;;;;;;204.13;23.00;;;10.30;99.90;;;;;;5045940;28;20029;-58
2023/01/08 11:26:37;;;;;;;198.68;24.05;;;10.30;99.90;;;;;;5082006;28;20048;-58
2023/01/08 11:29:05;;;;;;;134.43;19.45;;;10.30;99.90;;;;;;5084573;28;20036;-58
2023/01/08 11:31:44;;;;;;;154.02;20.35;;;10.30;99.90;;;;;;5087232;28;20024;-58
2023/01/08 11:34:17;;;;;;;180.77;20.88;;;10.30;99.90;;;;;;5086213;28;20032;-58
2023/01/08 11:36:49;;;;;;;237.73;25.55;;;10.40;99.90;;;;;;5103252;28;20033;-58
2023/01/08 11:39:15;;;;;;;195.30;21.75;;;10.40;99.90;;;;;;5086317;28;20107;-58
2023/01/08 11:42:00;;;;;;;193.80;22.98;;;10.40;99.90;;;;;;5086506;28;20126;-58
2023/01/08 11:44:38;;;;;;;207.30;20.38;;;10.50;99.90;;;;;;5068336;28;20033;-58
2023/01/08 11:47:07;;;;;;;261.10;24.80;;;10.50;99.90;;;;;;5084446;28;20024;-58
2023/01/08 11:50:18;;;;;;;234.63;25.30;;;10.50;99.90;;;;;;5087557;28;20110;-58
2023/01/08 11:53:05;;;;;;;276.30;25.60;;;10.60;99.90;;;;;;5073484;28;20128;-58
2023/01/08 11:55:47;;;;;;;292.30;27.38;;;10.60;99.90;;;;;;5085019;28;20048;-58
2023/01/08 11:58:25;;;;;;;197.75;23.88;;;10.60;99.90;;;;;;5069835;28;20039;-58
2023/01/08 12:01:19;;;;;;;245.00;25.50;;;10.70;99.90;;;;;;5085875;28;20028;-58
2023/01/08 12:03:48;;;;;;;255.18;27.52;;;10.70;99.90;;;;;;5082727;28;20033;-58
2023/01/08 12:06:33;;;;;;;256.30;27.55;;;10.70;99.90;;;;;;5051735;28;20028;-58
2023/01/08 12:09:09;;;;;;;255.85;26.33;;;10.70;99.90;;;;;;5065867;28;20045;-58
2023/01/08 12:11:52;;;;;;;254.02;28.75;;;10.70;99.90;;;;;;5089375;28;20043;-58
2023/01/08 12:14:46;;;;;;;259.10;28.08;;;10.80;99.90;;;;;;5068900;28;20078;-58
2023/01/08 12:17:49;;;;;;;238.10;27.77;;;10.80;99.90;;;;;;5083559;28;20052;-58
2023/01/08 12:20:53;;;;;;;261.50;29.92;;;10.80;99.90;;;;;;5053858;28;20143;-58
2023/01/08 12:23:48;;;;;;;239.18;26.20;;;10.80;99.90;;;;;;5013664;28;20029;-58
2023/01/08 12:26:58;;;;;;;278.23;30.00;;;10.90;99.90;;;;;;5085779;28;20451;-58
2023/01/08 12:29:56;;;;;;;276.17;28.65;;;10.90;99.90;;;;;;5063035;28;20191;-58
2023/01/08 12:32:43;;;;;;;261.65;28.30;;;10.90;99.90;;;;;;5085719;28;20040;-58
2023/01/08 12:35:16;;;;;;;303.83;33.38;;;10.90;99.90;;;;;;5086032;28;20028;-58
2023/01/08 12:37:50;;;;;;;300.15;31.00;;;11.00;99.90;;;;;;5066278;28;20029;-59
2023/01/08 12:40:24;;;;;;;254.73;28.48;;;11.00;99.90;;;;;;5064876;28;20016;-58
2023/01/08 12:42:50;;;;;;;289.70;31.83;;;11.00;99.90;;;;;;5066613;28;20123;-59
2023/01/08 12:45:29;;;;;;;206.15;24.65;;;11.00;99.90;;;;;;5083622;28;20036;-58
2023/01/08 12:48:15;;;;;;;259.95;27.52;;;11.00;99.90;;;;;;5084409;28;20063;-58